createdAt,value
2023-02-09T00:00:07.736Z,69.85
2023-02-09T00:02:34.197Z,70.64
2023-02-09T00:03:36.502Z,70.64
2023-02-09T00:05:00.961Z,69.64
2023-02-09T00:07:27.369Z,70.00
2023-02-09T00:08:36.460Z,70.00
2023-02-09T00:09:53.753Z,70.42
2023-02-09T00:12:55.725Z,70.54
2023-02-09T00:13:36.445Z,70.54
2023-02-09T00:15:22.133Z,70.50
2023-02-09T00:17:50.694Z,71.59
2023-02-09T00:18:36.475Z,71.59
2023-02-09T00:20:17.298Z,72.24
2023-02-09T00:22:43.727Z,73.55
2023-02-09T00:23:36.450Z,73.55
2023-02-09T00:25:10.082Z,72.41
2023-02-09T00:27:36.533Z,73.22
2023-02-09T00:28:36.436Z,73.22
2023-02-09T00:30:03.009Z,73.05
2023-02-09T00:32:32.295Z,73.21
2023-02-09T00:33:36.475Z,73.21
2023-02-09T00:34:58.680Z,72.97
2023-02-09T00:37:25.060Z,73.97
2023-02-09T00:38:36.452Z,73.97
2023-02-09T00:39:51.524Z,73.91
2023-02-09T00:42:17.917Z,73.77
2023-02-09T00:43:36.478Z,73.77
2023-02-09T00:44:44.268Z,73.01
2023-02-09T00:47:10.696Z,72.54
2023-02-09T00:48:36.458Z,72.54
2023-02-09T00:49:37.292Z,73.35
2023-02-09T00:52:03.774Z,72.96
2023-02-09T00:53:36.452Z,72.96
2023-02-09T00:54:30.244Z,73.41
2023-02-09T00:56:58.555Z,72.73
2023-02-09T00:58:36.457Z,72.73
2023-02-09T00:59:24.951Z,73.61
2023-02-09T01:01:51.318Z,72.95
2023-02-09T01:03:36.480Z,72.95
2023-02-09T01:04:17.744Z,73.51
2023-02-09T01:06:44.135Z,73.61
2023-02-09T01:08:36.437Z,73.61
2023-02-09T01:09:10.481Z,73.26
2023-02-09T01:11:36.918Z,73.84
2023-02-09T01:13:36.476Z,73.84
2023-02-09T01:14:04.443Z,73.97
2023-02-09T01:16:31.841Z,75.13
2023-02-09T01:18:36.488Z,75.13
2023-02-09T01:19:00.428Z,75.30
2023-02-09T01:21:27.297Z,76.19
2023-02-09T01:23:36.454Z,76.19
2023-02-09T01:23:53.853Z,76.09
2023-02-09T01:26:20.436Z,75.41
2023-02-09T01:28:36.548Z,75.41
2023-02-09T01:28:51.683Z,76.42
2023-02-09T01:31:30.502Z,75.39
2023-02-09T01:33:36.430Z,75.39
2023-02-09T01:33:58.835Z,75.56
2023-02-09T01:36:25.666Z,75.97
2023-02-09T01:38:36.446Z,75.97
2023-02-09T01:38:55.064Z,75.59
2023-02-09T01:41:22.146Z,76.60
2023-02-09T01:43:36.501Z,76.60
2023-02-09T01:44:26.745Z,76.77
2023-02-09T01:46:53.432Z,76.95
2023-02-09T01:48:36.474Z,76.95
2023-02-09T01:49:23.447Z,76.59
2023-02-09T01:51:56.636Z,76.66
2023-02-09T01:53:36.560Z,76.66
2023-02-09T01:54:33.397Z,76.88
2023-02-09T01:57:06.768Z,77.32
2023-02-09T01:58:36.478Z,77.32
2023-02-09T01:59:36.274Z,77.98
2023-02-09T02:02:04.394Z,76.99
2023-02-09T02:03:36.474Z,76.99
2023-02-09T02:04:30.883Z,77.97
2023-02-09T02:07:12.328Z,78.19
2023-02-09T02:08:36.462Z,78.19
2023-02-09T02:09:38.814Z,78.00
2023-02-09T02:12:05.637Z,78.00
2023-02-09T02:13:36.449Z,78.00
2023-02-09T02:14:38.202Z,77.26
2023-02-09T02:17:32.912Z,78.90
2023-02-09T02:18:36.524Z,78.90
2023-02-09T02:20:36.728Z,79.16
2023-02-09T02:23:35.675Z,78.65
2023-02-09T02:23:36.482Z,78.65
2023-02-09T02:26:38.809Z,78.87
2023-02-09T02:28:36.481Z,78.87
2023-02-09T02:29:30.392Z,79.08
2023-02-09T02:32:10.816Z,80.23
2023-02-09T02:33:36.473Z,80.23
2023-02-09T02:35:01.703Z,79.50
2023-02-09T02:37:46.033Z,80.75
2023-02-09T02:38:36.499Z,80.75
2023-02-09T02:40:31.303Z,81.04
2023-02-09T02:43:09.159Z,80.72
2023-02-09T02:43:36.513Z,80.72
2023-02-09T02:45:49.125Z,80.73
2023-02-09T02:48:41.983Z,79.80
2023-02-09T02:48:42.138Z,79.80
2023-02-09T02:51:13.101Z,80.94
2023-02-09T02:53:36.522Z,23
2023-02-09T02:53:43.652Z,80.02
2023-02-09T02:56:15.324Z,81.06
2023-02-09T02:58:36.516Z,81.06
2023-02-09T02:58:44.653Z,81.08
2023-02-09T03:01:16.314Z,81.51
2023-02-09T03:03:36.554Z,81.51
2023-02-09T03:03:44.799Z,82.49
2023-02-09T03:06:13.200Z,82.40
2023-02-09T03:08:36.534Z,82.40
2023-02-09T03:08:48.244Z,82.79
2023-02-09T03:11:14.693Z,82.61
2023-02-09T03:13:36.537Z,82.61
2023-02-09T03:13:58.299Z,82.52
2023-02-09T03:16:40.080Z,82.70
2023-02-09T03:18:36.541Z,82.70
2023-02-09T03:19:31.439Z,82.14
2023-02-09T03:22:13.636Z,82.94
2023-02-09T03:23:36.518Z,82.94
2023-02-09T03:24:49.786Z,83.00
2023-02-09T03:27:27.173Z,82.59
2023-02-09T03:28:37.563Z,82.59
2023-02-09T03:29:57.122Z,84.08
2023-02-09T03:32:24.620Z,84.26
2023-02-09T03:33:36.533Z,84.26
2023-02-09T03:34:52.667Z,84.20
2023-02-09T03:37:19.386Z,85.02
2023-02-09T03:38:36.515Z,85.02
2023-02-09T03:39:45.880Z,84.85
2023-02-09T03:42:12.250Z,85.58
2023-02-09T03:43:36.538Z,85.58
2023-02-09T03:44:38.801Z,86.13
2023-02-09T03:47:08.056Z,86.37
2023-02-09T03:48:36.514Z,86.37
2023-02-09T03:49:39.573Z,85.64
2023-02-09T03:52:08.638Z,86.14
2023-02-09T03:53:36.556Z,86.14
2023-02-09T03:54:35.550Z,86.03
2023-02-09T03:57:04.518Z,86.73
2023-02-09T03:58:36.498Z,86.73
2023-02-09T03:59:35.205Z,87.09
2023-02-09T04:02:02.631Z,87.21
2023-02-09T04:04:23.821Z,87.21
2023-02-09T04:05:13.573Z,87.42
2023-02-09T04:07:40.365Z,89.47
2023-02-09T04:08:36.505Z,89.47
2023-02-09T04:10:07.148Z,89.10
2023-02-09T04:12:33.581Z,90.14
2023-02-09T04:13:36.518Z,90.14
2023-02-09T04:14:59.915Z,90.24
2023-02-09T04:17:26.410Z,90.75
2023-02-09T04:18:36.582Z,90.75
2023-02-09T04:19:52.843Z,89.54
2023-02-09T04:22:29.714Z,89.86
2023-02-09T04:23:36.541Z,89.86
2023-02-09T04:24:56.150Z,90.79
2023-02-09T04:27:22.582Z,90.27
2023-02-09T04:28:36.542Z,90.27
2023-02-09T04:29:48.966Z,91.25
2023-02-09T04:32:15.349Z,91.04
2023-02-09T04:33:36.570Z,91.04
2023-02-09T04:34:41.791Z,91.26
2023-02-09T04:37:08.240Z,92.11
2023-02-09T04:38:36.598Z,92.11
2023-02-09T04:39:34.789Z,92.40
2023-02-09T04:42:01.689Z,92.80
2023-02-09T04:43:36.601Z,92.80
2023-02-09T04:44:30.063Z,94.13
2023-02-09T04:46:58.640Z,94.19
2023-02-09T04:48:36.541Z,94.19
2023-02-09T04:49:25.040Z,94.07
2023-02-09T04:51:51.629Z,94.76
2023-02-09T04:53:36.650Z,94.76
2023-02-09T04:54:17.990Z,95.27
2023-02-09T04:56:44.497Z,95.87
2023-02-09T04:58:36.659Z,95.87
2023-02-09T04:59:29.397Z,96.53
2023-02-09T05:01:55.829Z,96.51
2023-02-09T05:03:36.614Z,96.51
2023-02-09T05:04:22.161Z,96.90
2023-02-09T05:06:50.748Z,96.13
2023-02-09T05:08:36.574Z,96.13
2023-02-09T05:09:17.234Z,96.33
2023-02-09T05:11:43.651Z,97.29
2023-02-09T05:13:36.584Z,97.29
2023-02-09T05:14:10.298Z,97.33
2023-02-09T05:16:39.035Z,97.23
2023-02-09T05:18:36.540Z,97.23
2023-02-09T05:19:06.352Z,97.35
2023-02-09T05:21:32.872Z,98.53
2023-02-09T05:23:36.556Z,98.53
2023-02-09T05:23:59.337Z,98.53
2023-02-09T05:26:25.689Z,97.76
2023-02-09T05:28:36.532Z,97.76
2023-02-09T05:28:52.258Z,98.70
2023-02-09T05:31:19.032Z,98.42
2023-02-09T05:33:36.526Z,98.42
2023-02-09T05:33:45.529Z,98.99
2023-02-09T05:36:12.838Z,99.33
2023-02-09T05:38:36.560Z,99.33
2023-02-09T05:38:39.652Z,99.23
2023-02-09T05:41:08.156Z,99.30
2023-02-09T05:43:35.122Z,100.00
2023-02-09T05:43:36.567Z,100.00
2023-02-09T05:46:01.922Z,100.00
2023-02-09T05:48:28.971Z,100.00
2023-02-09T05:48:36.609Z,100.00
2023-02-09T05:50:55.403Z,100.00
2023-02-09T05:53:21.841Z,100.00
2023-02-09T05:53:36.571Z,100.00
2023-02-09T05:55:48.309Z,100.00
2023-02-09T05:58:14.811Z,100.00
2023-02-09T05:58:36.592Z,100.00
2023-02-09T06:00:41.282Z,100.00
2023-02-09T06:03:07.659Z,100.00
2023-02-09T06:03:36.618Z,100.00
2023-02-09T06:05:34.056Z,100.00
2023-02-09T06:08:00.579Z,100.00
2023-02-09T06:08:36.584Z,100.00
2023-02-09T06:10:26.984Z,100.00
2023-02-09T06:12:53.439Z,100.00
2023-02-09T06:13:36.627Z,100.00
2023-02-09T06:15:21.008Z,100.00
2023-02-09T06:17:47.421Z,100.00
2023-02-09T06:18:36.604Z,100.00
2023-02-09T06:20:14.176Z,100.00
2023-02-09T06:22:40.834Z,100.00
2023-02-09T06:23:36.549Z,100.00
2023-02-09T06:25:07.672Z,100.00
2023-02-09T06:27:34.205Z,100.00
2023-02-09T06:28:36.535Z,100.00
2023-02-09T06:30:00.626Z,100.00
2023-02-09T06:32:27.491Z,100.00
2023-02-09T06:33:36.562Z,100.00
2023-02-09T06:34:56.430Z,100.00
2023-02-09T06:37:23.099Z,100.00
2023-02-09T06:38:36.533Z,100.00
2023-02-09T06:39:49.602Z,100.00
2023-02-09T06:42:16.034Z,100.00
2023-02-09T06:43:36.533Z,100.00
2023-02-09T06:44:42.485Z,100.00
2023-02-09T06:47:08.905Z,100.00
2023-02-09T06:48:36.559Z,100.00
2023-02-09T06:49:35.447Z,100.00
2023-02-09T06:52:02.263Z,100.00
2023-02-09T06:53:36.584Z,100.00
2023-02-09T06:54:29.353Z,100.00
2023-02-09T06:56:55.953Z,100.00
2023-02-09T06:58:36.633Z,100.00
2023-02-09T06:59:22.682Z,100.00
2023-02-09T07:01:53.438Z,100.00
2023-02-09T07:03:36.586Z,100.00
2023-02-09T07:04:20.990Z,100.00
2023-02-09T07:06:47.851Z,100.00
2023-02-09T07:08:36.555Z,100.00
2023-02-09T07:09:14.270Z,100.00
2023-02-09T07:11:40.828Z,100.00
2023-02-09T07:13:36.572Z,100.00
2023-02-09T07:14:07.160Z,100.00
2023-02-09T07:16:33.588Z,100.00
2023-02-09T07:18:36.629Z,100.00
2023-02-09T07:19:00.538Z,100.00
2023-02-09T07:21:27.107Z,100.00
2023-02-09T07:23:36.584Z,100.00
2023-02-09T07:23:53.485Z,100.00
2023-02-09T07:26:20.101Z,100.00
2023-02-09T07:28:36.544Z,100.00
2023-02-09T07:28:46.771Z,100.00
2023-02-09T07:31:15.479Z,100.00
2023-02-09T07:33:36.560Z,100.00
2023-02-09T07:33:42.375Z,100.00
2023-02-09T07:36:11.169Z,100.00
2023-02-09T07:38:38.250Z,100.00
2023-02-09T07:38:38.667Z,100.00
2023-02-09T07:41:06.542Z,100.00
2023-02-09T07:43:33.535Z,100.00
2023-02-09T07:43:36.549Z,100.00
2023-02-09T07:46:02.001Z,99.75
2023-02-09T07:48:28.736Z,99.77
2023-02-09T07:48:36.546Z,99.77
2023-02-09T07:50:55.257Z,98.68
2023-02-09T07:53:21.876Z,98.89
2023-02-09T07:53:36.606Z,98.89
2023-02-09T07:55:48.584Z,98.87
2023-02-09T07:58:18.161Z,97.74
2023-02-09T07:58:36.563Z,97.74
2023-02-09T08:00:46.118Z,97.46
2023-02-09T08:03:14.830Z,96.49
2023-02-09T08:03:36.557Z,96.49
2023-02-09T08:05:55.563Z,95.86
2023-02-09T08:08:22.228Z,95.31
2023-02-09T08:08:36.617Z,95.31
2023-02-09T08:10:49.110Z,95.20
2023-02-09T08:13:15.881Z,93.37
2023-02-09T08:13:36.570Z,93.37
2023-02-09T08:15:51.342Z,92.66
2023-02-09T08:18:25.333Z,91.79
2023-02-09T08:18:36.570Z,91.79
2023-02-09T08:20:52.418Z,91.37
2023-02-09T08:23:25.391Z,91.11
2023-02-09T08:23:38.370Z,91.11
2023-02-09T08:25:52.038Z,89.92
2023-02-09T08:28:20.064Z,89.54
2023-02-09T08:28:43.924Z,89.54
2023-02-09T08:30:48.169Z,88.73
2023-02-09T08:33:15.103Z,87.17
2023-02-09T08:33:36.561Z,87.17
2023-02-09T08:35:42.054Z,87.26
2023-02-09T08:38:09.495Z,86.61
2023-02-09T08:38:36.569Z,86.61
2023-02-09T08:40:41.214Z,86.43
2023-02-09T08:43:08.487Z,84.91
2023-02-09T08:43:36.629Z,84.91
2023-02-09T08:45:39.446Z,83.81
2023-02-09T08:48:06.985Z,83.56
2023-02-09T08:48:36.599Z,83.56
2023-02-09T08:50:33.776Z,82.72
2023-02-09T08:53:02.735Z,81.12
2023-02-09T08:53:36.598Z,81.12
2023-02-09T08:55:31.124Z,80.59
2023-02-09T08:57:57.769Z,79.33
2023-02-09T08:58:36.627Z,79.33
2023-02-09T09:00:24.359Z,79.17
2023-02-09T09:02:50.808Z,78.75
2023-02-09T09:03:36.575Z,78.75
2023-02-09T09:05:17.493Z,78.03
2023-02-09T09:07:43.865Z,77.25
2023-02-09T09:08:36.595Z,77.25
2023-02-09T09:10:10.880Z,77.22
2023-02-09T09:12:37.753Z,76.25
2023-02-09T09:13:36.606Z,76.25
2023-02-09T09:15:05.182Z,75.82
2023-02-09T09:17:31.971Z,75.27
2023-02-09T09:18:36.607Z,75.27
2023-02-09T09:19:58.738Z,74.35
2023-02-09T09:22:25.744Z,73.88
2023-02-09T09:23:36.579Z,73.88
2023-02-09T09:24:54.242Z,73.05
2023-02-09T09:27:21.118Z,72.67
2023-02-09T09:28:36.597Z,72.67
2023-02-09T09:29:47.465Z,71.88
2023-02-09T09:32:14.096Z,71.51
2023-02-09T09:33:36.586Z,71.51
2023-02-09T09:34:41.492Z,70.70
2023-02-09T09:37:08.035Z,70.45
2023-02-09T09:38:36.577Z,70.45
2023-02-09T09:39:34.416Z,70.22
2023-02-09T09:42:01.171Z,69.60
2023-02-09T09:43:36.606Z,69.60
2023-02-09T09:44:35.120Z,69.22
2023-02-09T09:47:08.691Z,68.69
2023-02-09T09:48:36.622Z,68.69
2023-02-09T09:49:36.912Z,67.19
2023-02-09T09:52:30.482Z,67.30
2023-02-09T09:53:36.590Z,67.30
2023-02-09T09:54:58.308Z,67.07
2023-02-09T09:57:27.813Z,67.07
2023-02-09T09:58:36.579Z,67.07
2023-02-09T09:59:55.050Z,66.86
2023-02-09T10:02:28.896Z,66.65
2023-02-09T10:03:36.610Z,66.65
2023-02-09T10:05:02.491Z,66.16
2023-02-09T10:07:32.649Z,65.37
2023-02-09T10:08:36.604Z,65.37
2023-02-09T10:10:05.970Z,64.48
2023-02-09T10:12:37.547Z,64.36
2023-02-09T10:13:36.607Z,64.36
2023-02-09T10:15:30.348Z,64.01
2023-02-09T10:17:58.113Z,63.63
2023-02-09T10:18:36.578Z,63.63
2023-02-09T10:20:48.528Z,63.21
2023-02-09T10:23:27.312Z,63.50
2023-02-09T10:23:36.637Z,63.50
2023-02-09T10:26:03.008Z,63.13
2023-02-09T10:28:32.998Z,61.81
2023-02-09T10:28:36.591Z,61.81
2023-02-09T10:31:03.141Z,61.06
2023-02-09T10:33:40.623Z,60.38
2023-02-09T10:33:40.787Z,60.38
2023-02-09T10:36:23.885Z,60.66
2023-02-09T10:38:36.597Z,60.66
2023-02-09T10:38:51.637Z,61.14
2023-02-09T10:41:18.864Z,61.35
2023-02-09T10:43:36.592Z,61.35
2023-02-09T10:43:52.578Z,61.50
2023-02-09T10:46:20.842Z,60.65
2023-02-09T10:48:36.643Z,60.65
2023-02-09T10:48:48.172Z,61.22
2023-02-09T10:51:29.284Z,60.98
2023-02-09T10:53:36.687Z,60.98
2023-02-09T10:53:55.650Z,60.38
2023-02-09T10:56:25.158Z,59.79
2023-02-09T10:58:36.624Z,59.79
2023-02-09T10:59:00.493Z,60.00
2023-02-09T11:01:31.067Z,58.90
2023-02-09T11:03:36.607Z,58.90
2023-02-09T11:04:05.307Z,58.38
2023-02-09T11:06:48.096Z,58.26
2023-02-09T11:08:36.637Z,58.26
2023-02-09T11:09:18.357Z,58.31
2023-02-09T11:11:45.414Z,58.28
2023-02-09T11:13:36.657Z,58.28
2023-02-09T11:14:15.760Z,57.69
2023-02-09T11:16:55.884Z,57.54
2023-02-09T11:18:36.951Z,57.54
2023-02-09T11:19:28.464Z,56.40
2023-02-09T11:22:02.302Z,56.66
2023-02-09T11:23:36.631Z,23
2023-02-09T11:24:59.945Z,56.27
2023-02-09T11:27:36.159Z,55.48
2023-02-09T11:28:36.663Z,55.48
2023-02-09T11:30:19.081Z,56.07
2023-02-09T11:32:52.732Z,54.67
2023-02-09T11:33:36.679Z,54.67
2023-02-09T11:35:22.158Z,54.38
2023-02-09T11:37:56.159Z,54.51
2023-02-09T11:38:36.608Z,54.51
2023-02-09T11:40:39.713Z,53.84
2023-02-09T11:43:12.088Z,53.65
2023-02-09T11:43:36.631Z,53.65
2023-02-09T11:45:53.160Z,53.67
2023-02-09T11:48:32.709Z,53.21
2023-02-09T11:48:36.618Z,53.21
2023-02-09T11:51:14.775Z,52.75
2023-02-09T11:53:36.707Z,52.75
2023-02-09T11:54:19.761Z,52.96
2023-02-09T11:56:49.798Z,52.52
2023-02-09T11:58:36.639Z,52.52
2023-02-09T11:59:41.213Z,51.74
2023-02-09T12:02:19.425Z,52.30
2023-02-09T12:03:36.726Z,52.30
2023-02-09T12:04:59.519Z,52.29
2023-02-09T12:07:33.050Z,51.60
2023-02-09T12:08:36.607Z,51.60
2023-02-09T12:10:18.421Z,51.51
2023-02-09T12:13:01.404Z,51.65
2023-02-09T12:13:36.637Z,51.65
2023-02-09T12:15:51.391Z,51.29
2023-02-09T12:18:36.621Z,50.48
2023-02-09T12:18:36.742Z,50.48
2023-02-09T12:21:05.569Z,49.78
2023-02-09T12:23:43.346Z,49.66
2023-02-09T12:23:43.673Z,49.66
2023-02-09T12:26:12.741Z,49.87
2023-02-09T12:28:36.667Z,49.87
2023-02-09T12:28:42.291Z,49.19
2023-02-09T12:31:13.807Z,48.97
2023-02-09T12:33:36.626Z,48.97
2023-02-09T12:33:47.027Z,49.49
2023-02-09T12:36:13.578Z,50.22
2023-02-09T12:38:36.614Z,50.22
2023-02-09T12:38:56.422Z,50.07
2023-02-09T12:41:26.077Z,48.25
2023-02-09T12:43:36.652Z,48.25
2023-02-09T12:44:13.693Z,48.80
2023-02-09T12:46:52.765Z,49.30
2023-02-09T12:48:36.641Z,49.30
2023-02-09T12:49:29.368Z,48.80
2023-02-09T12:52:02.064Z,49.82
2023-02-09T12:53:36.622Z,49.82
2023-02-09T12:54:31.934Z,48.79
2023-02-09T12:57:17.382Z,49.13
2023-02-09T12:58:36.725Z,49.13
2023-02-09T12:59:50.196Z,49.26
2023-02-09T13:02:39.938Z,49.67
2023-02-09T13:03:36.646Z,49.67
2023-02-09T13:05:17.227Z,48.90
2023-02-09T13:08:04.102Z,49.29
2023-02-09T13:08:37.705Z,49.29
2023-02-09T13:10:48.078Z,49.61
2023-02-09T13:13:36.063Z,48.88
2023-02-09T13:13:36.610Z,48.88
2023-02-09T13:16:15.090Z,49.64
2023-02-09T13:18:36.655Z,49.64
2023-02-09T13:18:50.360Z,49.23
2023-02-09T13:22:12.374Z,49.53
2023-02-09T13:23:36.648Z,49.53
2023-02-09T13:24:52.639Z,47.70
2023-02-09T13:27:21.347Z,48.39
2023-02-09T13:28:36.611Z,48.39
2023-02-09T13:29:59.122Z,47.87
2023-02-09T13:32:50.445Z,47.66
2023-02-09T13:33:36.651Z,47.66
2023-02-09T13:35:49.969Z,47.97
2023-02-09T13:38:19.468Z,47.87
2023-02-09T13:38:36.666Z,47.87
2023-02-09T13:40:48.784Z,48.36
2023-02-09T13:43:26.950Z,47.65
2023-02-09T13:43:36.639Z,47.65
2023-02-09T13:45:55.687Z,48.31
2023-02-09T13:48:29.900Z,47.91
2023-02-09T13:48:36.672Z,47.91
2023-02-09T13:50:59.742Z,47.78
2023-02-09T13:53:33.056Z,49.06
2023-02-09T13:53:36.713Z,49.06
2023-02-09T13:56:02.167Z,49.75
2023-02-09T13:58:35.374Z,49.91
2023-02-09T13:58:36.836Z,49.91
2023-02-09T14:01:14.148Z,49.37
2023-02-09T14:03:39.449Z,49.37
2023-02-09T14:03:57.819Z,48.55
2023-02-09T14:06:50.454Z,48.35
2023-02-09T14:08:39.167Z,48.35
2023-02-09T14:09:21.999Z,48.78
2023-02-09T14:11:57.153Z,49.13
2023-02-09T14:13:36.689Z,49.13
2023-02-09T14:14:50.007Z,48.80
2023-02-09T14:17:32.112Z,48.68
2023-02-09T14:18:36.660Z,48.68
2023-02-09T14:20:00.193Z,49.13
2023-02-09T14:22:38.688Z,48.87
2023-02-09T14:23:36.660Z,48.87
2023-02-09T14:25:25.523Z,49.73
2023-02-09T14:27:53.304Z,49.13
2023-02-09T14:28:36.742Z,49.13
2023-02-09T14:30:26.486Z,48.50
2023-02-09T14:32:58.293Z,50.02
2023-02-09T14:33:36.649Z,50.02
2023-02-09T14:35:28.866Z,51.20
2023-02-09T14:38:00.971Z,50.15
2023-02-09T14:38:36.667Z,50.15
2023-02-09T14:40:27.786Z,50.24
2023-02-09T14:43:11.026Z,51.42
2023-02-09T14:43:36.653Z,51.42
2023-02-09T14:45:50.166Z,50.13
2023-02-09T14:48:22.018Z,50.36
2023-02-09T14:48:36.655Z,50.36
2023-02-09T14:50:57.453Z,50.57
2023-02-09T14:53:27.871Z,50.20
2023-02-09T14:53:36.655Z,50.20
2023-02-09T14:55:55.740Z,50.91
2023-02-09T14:58:30.859Z,50.85
2023-02-09T14:58:36.669Z,50.85
2023-02-09T15:01:00.241Z,51.94
2023-02-09T15:03:28.738Z,51.29
2023-02-09T15:03:36.633Z,51.29
2023-02-09T15:05:59.079Z,51.96
2023-02-09T15:08:28.381Z,51.57
2023-02-09T15:08:36.652Z,51.57
2023-02-09T15:11:24.196Z,52.82
2023-02-09T15:13:36.700Z,52.82
2023-02-09T15:13:58.013Z,53.08
2023-02-09T15:16:24.522Z,52.33
2023-02-09T15:18:37.529Z,52.33
2023-02-09T15:18:51.245Z,52.55
2023-02-09T15:21:18.094Z,52.60
2023-02-09T15:23:36.652Z,52.60
2023-02-09T15:23:44.545Z,52.25
2023-02-09T15:26:32.477Z,52.98
2023-02-09T15:28:36.704Z,52.98
2023-02-09T15:29:02.693Z,53.31
2023-02-09T15:31:31.725Z,54.46
2023-02-09T15:33:36.644Z,54.46
2023-02-09T15:33:58.277Z,53.41
2023-02-09T15:36:26.555Z,53.99
2023-02-09T15:38:37.654Z,53.99
2023-02-09T15:38:53.208Z,55.01
2023-02-09T15:41:38.347Z,54.40
2023-02-09T15:43:36.621Z,54.40
2023-02-09T15:44:35.666Z,54.76
2023-02-09T15:47:20.949Z,55.41
2023-02-09T15:48:36.672Z,55.41
2023-02-09T15:49:50.512Z,56.17
2023-02-09T15:52:20.529Z,55.41
2023-02-09T15:53:36.624Z,55.41
2023-02-09T15:54:51.440Z,55.84
2023-02-09T15:57:18.024Z,56.02
2023-02-09T15:58:36.649Z,56.02
2023-02-09T15:59:46.500Z,56.19
2023-02-09T16:02:14.212Z,56.33
2023-02-09T16:03:36.646Z,56.33
2023-02-09T16:04:40.962Z,56.39
2023-02-09T16:07:13.150Z,57.37
2023-02-09T16:08:36.676Z,57.37
2023-02-09T16:09:42.831Z,57.63
2023-02-09T16:12:11.332Z,58.39
2023-02-09T16:13:36.777Z,58.39
2023-02-09T16:14:40.896Z,58.84
2023-02-09T16:17:08.203Z,59.27
2023-02-09T16:18:37.022Z,59.27
2023-02-09T16:19:34.935Z,59.09
2023-02-09T16:22:04.410Z,59.76
2023-02-09T16:23:39.472Z,59.76
2023-02-09T16:24:47.015Z,59.63
2023-02-09T16:27:22.476Z,60.39
2023-02-09T16:28:36.781Z,60.39
2023-02-09T16:29:49.161Z,60.18
2023-02-09T16:32:22.255Z,61.03
2023-02-09T16:33:36.648Z,61.03
2023-02-09T16:34:49.651Z,61.32
2023-02-09T16:37:29.219Z,61.20
2023-02-09T16:38:36.648Z,61.20
2023-02-09T16:39:58.276Z,61.85
2023-02-09T16:42:25.513Z,61.70
2023-02-09T16:43:36.657Z,61.70
2023-02-09T16:44:56.699Z,62.31
2023-02-09T16:47:26.471Z,61.85
2023-02-09T16:48:36.665Z,61.85
2023-02-09T16:50:23.721Z,62.40
2023-02-09T16:52:56.232Z,63.19
2023-02-09T16:53:36.661Z,63.19
2023-02-09T16:55:27.412Z,63.56
2023-02-09T16:57:57.052Z,64.06
2023-02-09T16:58:36.662Z,64.06
2023-02-09T17:00:39.074Z,64.38
2023-02-09T17:03:07.420Z,65.18
2023-02-09T17:03:36.665Z,65.18
2023-02-09T17:05:37.068Z,65.57
2023-02-09T17:08:18.440Z,66.71
2023-02-09T17:08:36.669Z,66.71
2023-02-09T17:10:46.950Z,66.65
2023-02-09T17:13:14.460Z,67.65
2023-02-09T17:13:36.685Z,67.65
2023-02-09T17:15:44.857Z,67.80
2023-02-09T17:18:16.967Z,67.94
2023-02-09T17:18:36.672Z,67.94
2023-02-09T17:20:47.359Z,68.88
2023-02-09T17:23:20.941Z,69.84
2023-02-09T17:23:36.657Z,69.84
2023-02-09T17:25:50.774Z,69.80
2023-02-09T17:28:19.182Z,70.55
2023-02-09T17:28:36.693Z,70.55
2023-02-09T17:30:47.703Z,70.50
2023-02-09T17:33:25.876Z,70.92
2023-02-09T17:33:36.708Z,70.92
2023-02-09T17:36:23.941Z,71.13
2023-02-09T17:38:36.648Z,71.13
2023-02-09T17:38:41.352Z,71.80
2023-02-09T17:41:17.912Z,72.29
2023-02-09T17:43:36.646Z,72.29
2023-02-09T17:43:44.515Z,72.92
2023-02-09T17:46:12.663Z,73.11
2023-02-09T17:48:36.663Z,73.11
2023-02-09T17:48:39.207Z,73.27
2023-02-09T17:51:09.547Z,73.50
2023-02-09T17:53:36.271Z,73.80
2023-02-09T17:53:36.679Z,73.80
2023-02-09T17:56:02.749Z,74.04
2023-02-09T17:58:29.499Z,74.29
2023-02-09T17:58:36.647Z,74.29
2023-02-09T18:00:56.691Z,74.02
2023-02-09T18:03:25.923Z,74.28
2023-02-09T18:03:36.662Z,74.28
2023-02-09T18:05:58.626Z,74.08
2023-02-09T18:08:27.403Z,73.15
2023-02-09T18:08:36.683Z,73.15
2023-02-09T18:10:57.881Z,73.40
2023-02-09T18:13:25.790Z,72.92
2023-02-09T18:13:36.663Z,72.92
2023-02-09T18:15:52.420Z,72.89
2023-02-09T18:18:19.018Z,72.82
2023-02-09T18:18:36.687Z,72.82
2023-02-09T18:20:45.635Z,72.71
2023-02-09T18:23:16.014Z,73.32
2023-02-09T18:23:36.645Z,73.32
2023-02-09T18:25:43.029Z,73.29
2023-02-09T18:28:09.649Z,73.52
2023-02-09T18:28:36.695Z,73.52
2023-02-09T18:30:40.274Z,74.12
2023-02-09T18:33:07.253Z,74.50
2023-02-09T18:33:36.692Z,74.50
2023-02-09T18:35:40.318Z,74.59
2023-02-09T18:38:09.155Z,75.43
2023-02-09T18:38:36.713Z,75.43
2023-02-09T18:40:36.302Z,75.12
2023-02-09T18:43:05.122Z,75.06
2023-02-09T18:43:37.471Z,75.06
2023-02-09T18:45:32.057Z,75.32
2023-02-09T18:47:59.112Z,75.24
2023-02-09T18:48:36.711Z,75.24
2023-02-09T18:50:28.624Z,74.95
2023-02-09T18:52:58.030Z,75.23
2023-02-09T18:53:36.681Z,75.23
2023-02-09T18:55:27.986Z,75.21
2023-02-09T18:57:54.781Z,75.12
2023-02-09T18:58:36.657Z,75.12
2023-02-09T19:00:22.178Z,75.83
2023-02-09T19:02:49.143Z,76.04
2023-02-09T19:03:36.776Z,76.04
2023-02-09T19:05:18.363Z,76.86
2023-02-09T19:07:45.814Z,77.31
2023-02-09T19:08:36.695Z,77.31
2023-02-09T19:10:16.343Z,77.91
2023-02-09T19:12:44.128Z,77.51
2023-02-09T19:13:36.697Z,77.51
2023-02-09T19:15:11.859Z,77.47
2023-02-09T19:17:40.563Z,78.12
2023-02-09T19:18:36.773Z,78.12
2023-02-09T19:20:19.990Z,78.01
2023-02-09T19:22:47.768Z,77.03
2023-02-09T19:23:36.683Z,77.03
2023-02-09T19:25:14.914Z,77.63
2023-02-09T19:27:41.552Z,76.50
2023-02-09T19:28:36.764Z,76.50
2023-02-09T19:30:08.724Z,77.11
2023-02-09T19:32:35.118Z,77.10
2023-02-09T19:33:36.676Z,77.10
2023-02-09T19:35:04.132Z,76.23
2023-02-09T19:37:30.609Z,76.50
2023-02-09T19:38:36.676Z,76.50
2023-02-09T19:40:17.338Z,76.41
2023-02-09T19:42:43.746Z,76.81
2023-02-09T19:43:36.760Z,76.81
2023-02-09T19:45:10.106Z,77.23
2023-02-09T19:47:37.344Z,77.69
2023-02-09T19:48:36.734Z,77.69
2023-02-09T19:50:04.302Z,77.58
2023-02-09T19:52:31.086Z,78.15
2023-02-09T19:53:36.672Z,78.15
2023-02-09T19:54:58.033Z,78.08
2023-02-09T19:57:24.510Z,78.20
2023-02-09T19:58:36.688Z,78.20
2023-02-09T19:59:52.966Z,78.24
2023-02-09T20:02:19.377Z,78.27
2023-02-09T20:03:36.706Z,78.27
2023-02-09T20:04:46.055Z,78.72
2023-02-09T20:07:14.438Z,78.84
2023-02-09T20:08:36.692Z,78.84
2023-02-09T20:09:41.704Z,78.88
2023-02-09T20:12:08.314Z,79.37
2023-02-09T20:13:36.650Z,79.37
2023-02-09T20:14:34.842Z,79.81
2023-02-09T20:17:01.302Z,79.44
2023-02-09T20:18:36.680Z,79.44
2023-02-09T20:19:27.811Z,80.02
2023-02-09T20:21:54.299Z,79.91
2023-02-09T20:23:36.660Z,79.91
2023-02-09T20:24:20.744Z,80.83
2023-02-09T20:26:48.142Z,80.97
2023-02-09T20:28:36.805Z,80.97
2023-02-09T20:29:16.920Z,81.85
2023-02-09T20:31:44.637Z,82.71
2023-02-09T20:33:38.720Z,82.71
2023-02-09T20:34:13.655Z,83.67
2023-02-09T20:36:41.508Z,83.40
2023-02-09T20:38:36.670Z,83.40
2023-02-09T20:39:10.107Z,84.40
2023-02-09T20:41:36.787Z,84.61
2023-02-09T20:43:36.699Z,84.61
2023-02-09T20:44:21.867Z,84.51
2023-02-09T20:46:56.939Z,85.01
2023-02-09T20:48:36.753Z,85.01
2023-02-09T20:49:29.250Z,84.93
2023-02-09T20:51:55.714Z,85.76
2023-02-09T20:53:36.687Z,85.76
2023-02-09T20:54:22.092Z,85.10
2023-02-09T20:56:48.464Z,86.06
2023-02-09T20:58:36.701Z,86.06
2023-02-09T20:59:15.490Z,85.55
2023-02-09T21:01:44.984Z,86.78
2023-02-09T21:03:36.677Z,86.78
2023-02-09T21:04:11.523Z,86.68
2023-02-09T21:06:38.609Z,87.71
2023-02-09T21:08:36.712Z,87.71
2023-02-09T21:09:06.683Z,88.41
2023-02-09T21:11:33.322Z,89.68
2023-02-09T21:13:36.689Z,89.68
2023-02-09T21:14:01.401Z,90.10
2023-02-09T21:16:28.473Z,91.47
2023-02-09T21:18:36.698Z,91.47
2023-02-09T21:18:55.132Z,92.62
2023-02-09T21:21:22.328Z,93.41
2023-02-09T21:23:36.706Z,93.41
2023-02-09T21:23:49.183Z,94.08
2023-02-09T21:26:17.465Z,97.50
2023-02-09T21:28:36.715Z,97.50
2023-02-09T21:28:43.994Z,99.94
2023-02-09T21:31:13.160Z,100.00
2023-02-09T21:33:36.696Z,100.00